sensor_id;sensor_type;location;lat;lon;timestamp;temperature;humidity
43320;DHT22;28914;48.722;9.332;2023-05-07T00:04:41;16.70;67.60
43320;DHT22;28914;48.722;9.332;2023-05-07T00:10:02;16.70;68.10
43320;DHT22;28914;48.722;9.332;2023-05-07T00:15:21;16.60;68.40
43320;DHT22;28914;48.722;9.332;2023-05-07T00:20:40;16.60;68.30
43320;DHT22;28914;48.722;9.332;2023-05-07T00:25:59;16.60;68.50
43320;DHT22;28914;48.722;9.332;2023-05-07T00:31:19;16.50;68.60
43320;DHT22;28914;48.722;9.332;2023-05-07T00:36:38;16.50;68.80
43320;DHT22;28914;48.722;9.332;2023-05-07T00:41:57;16.40;69.30
43320;DHT22;28914;48.722;9.332;2023-05-07T00:47:17;16.40;69.30
43320;DHT22;28914;48.722;9.332;2023-05-07T00:52:37;16.30;69.30
43320;DHT22;28914;48.722;9.332;2023-05-07T00:57:56;16.30;69.60
43320;DHT22;28914;48.722;9.332;2023-05-07T01:03:15;16.30;69.70
43320;DHT22;28914;48.722;9.332;2023-05-07T01:08:35;16.30;69.70
43320;DHT22;28914;48.722;9.332;2023-05-07T01:13:54;16.30;70.00
43320;DHT22;28914;48.722;9.332;2023-05-07T01:19:15;16.20;70.20
43320;DHT22;28914;48.722;9.332;2023-05-07T01:24:37;16.20;70.30
43320;DHT22;28914;48.722;9.332;2023-05-07T01:29:56;16.20;70.40
43320;DHT22;28914;48.722;9.332;2023-05-07T01:35:26;16.10;70.30
43320;DHT22;28914;48.722;9.332;2023-05-07T01:40:46;16.10;70.90
43320;DHT22;28914;48.722;9.332;2023-05-07T01:46:06;16.00;70.60
43320;DHT22;28914;48.722;9.332;2023-05-07T01:51:25;16.00;70.90
43320;DHT22;28914;48.722;9.332;2023-05-07T01:56:45;16.00;71.20
43320;DHT22;28914;48.722;9.332;2023-05-07T02:02:07;15.90;71.20
43320;DHT22;28914;48.722;9.332;2023-05-07T02:07:26;15.90;71.50
43320;DHT22;28914;48.722;9.332;2023-05-07T02:12:45;15.80;71.60
43320;DHT22;28914;48.722;9.332;2023-05-07T02:18:06;15.80;71.60
43320;DHT22;28914;48.722;9.332;2023-05-07T02:23:26;15.80;72.00
43320;DHT22;28914;48.722;9.332;2023-05-07T02:28:45;15.70;72.20
43320;DHT22;28914;48.722;9.332;2023-05-07T02:34:04;15.70;73.10
43320;DHT22;28914;48.722;9.332;2023-05-07T02:39:24;15.60;72.30
43320;DHT22;28914;48.722;9.332;2023-05-07T02:44:43;15.60;72.40
43320;DHT22;28914;48.722;9.332;2023-05-07T02:50:03;15.50;72.60
43320;DHT22;28914;48.722;9.332;2023-05-07T02:55:22;15.50;72.60
43320;DHT22;28914;48.722;9.332;2023-05-07T03:00:41;15.40;72.80
43320;DHT22;28914;48.722;9.332;2023-05-07T03:06:01;15.40;72.90
43320;DHT22;28914;48.722;9.332;2023-05-07T03:11:20;15.30;73.00
43320;DHT22;28914;48.722;9.332;2023-05-07T03:16:39;15.30;73.10
43320;DHT22;28914;48.722;9.332;2023-05-07T03:21:59;15.20;73.00
43320;DHT22;28914;48.722;9.332;2023-05-07T03:27:18;15.10;73.70
43320;DHT22;28914;48.722;9.332;2023-05-07T03:32:37;15.00;73.70
43320;DHT22;28914;48.722;9.332;2023-05-07T03:37:56;15.00;74.00
43320;DHT22;28914;48.722;9.332;2023-05-07T03:43:15;14.90;74.00
43320;DHT22;28914;48.722;9.332;2023-05-07T03:48:35;14.90;74.20
43320;DHT22;28914;48.722;9.332;2023-05-07T03:53:54;14.80;74.30
43320;DHT22;28914;48.722;9.332;2023-05-07T03:59:13;14.70;75.20
43320;DHT22;28914;48.722;9.332;2023-05-07T04:04:32;14.70;74.70
43320;DHT22;28914;48.722;9.332;2023-05-07T04:09:52;14.60;74.80
43320;DHT22;28914;48.722;9.332;2023-05-07T04:15:11;14.60;74.90
43320;DHT22;28914;48.722;9.332;2023-05-07T04:20:30;14.50;75.00
43320;DHT22;28914;48.722;9.332;2023-05-07T04:25:50;14.50;75.20
43320;DHT22;28914;48.722;9.332;2023-05-07T04:31:09;14.50;75.30
43320;DHT22;28914;48.722;9.332;2023-05-07T04:36:28;14.50;75.50
43320;DHT22;28914;48.722;9.332;2023-05-07T04:41:48;14.50;75.70
43320;DHT22;28914;48.722;9.332;2023-05-07T04:47:07;14.50;76.10
43320;DHT22;28914;48.722;9.332;2023-05-07T04:52:27;14.60;76.50
43320;DHT22;28914;48.722;9.332;2023-05-07T04:57:46;14.60;76.50
43320;DHT22;28914;48.722;9.332;2023-05-07T05:03:08;14.60;76.50
43320;DHT22;28914;48.722;9.332;2023-05-07T05:08:29;14.70;76.70
43320;DHT22;28914;48.722;9.332;2023-05-07T05:13:49;14.80;76.80
43320;DHT22;28914;48.722;9.332;2023-05-07T05:19:08;14.80;77.10
43320;DHT22;28914;48.722;9.332;2023-05-07T05:24:27;14.90;77.90
43320;DHT22;28914;48.722;9.332;2023-05-07T05:29:46;14.90;77.40
43320;DHT22;28914;48.722;9.332;2023-05-07T05:35:06;15.00;77.60
43320;DHT22;28914;48.722;9.332;2023-05-07T05:40:25;15.20;77.90
43320;DHT22;28914;48.722;9.332;2023-05-07T05:45:44;15.30;79.30
43320;DHT22;28914;48.722;9.332;2023-05-07T05:51:03;15.50;78.60
43320;DHT22;28914;48.722;9.332;2023-05-07T05:56:22;15.80;78.80
43320;DHT22;28914;48.722;9.332;2023-05-07T06:01:42;16.10;78.90
43320;DHT22;28914;48.722;9.332;2023-05-07T06:07:01;16.50;79.00
43320;DHT22;28914;48.722;9.332;2023-05-07T06:12:21;16.90;78.70
43320;DHT22;28914;48.722;9.332;2023-05-07T06:17:40;17.30;78.20
43320;DHT22;28914;48.722;9.332;2023-05-07T06:22:59;17.70;77.50
43320;DHT22;28914;48.722;9.332;2023-05-07T06:28:18;18.20;76.80
43320;DHT22;28914;48.722;9.332;2023-05-07T06:33:37;18.60;75.80
43320;DHT22;28914;48.722;9.332;2023-05-07T06:38:57;19.00;75.50
43320;DHT22;28914;48.722;9.332;2023-05-07T06:44:15;19.40;75.10
43320;DHT22;28914;48.722;9.332;2023-05-07T06:49:35;19.90;73.80
43320;DHT22;28914;48.722;9.332;2023-05-07T06:54:54;20.40;73.20
43320;DHT22;28914;48.722;9.332;2023-05-07T07:00:14;20.80;71.10
43320;DHT22;28914;48.722;9.332;2023-05-07T07:05:33;21.10;70.50
43320;DHT22;28914;48.722;9.332;2023-05-07T07:10:52;21.30;70.00
43320;DHT22;28914;48.722;9.332;2023-05-07T07:16:11;21.80;70.10
43320;DHT22;28914;48.722;9.332;2023-05-07T07:21:31;22.30;69.10
43320;DHT22;28914;48.722;9.332;2023-05-07T07:26:50;23.10;68.90
43320;DHT22;28914;48.722;9.332;2023-05-07T07:32:09;24.10;67.20
43320;DHT22;28914;48.722;9.332;2023-05-07T07:37:29;25.30;67.10
43320;DHT22;28914;48.722;9.332;2023-05-07T07:42:48;26.50;64.30
43320;DHT22;28914;48.722;9.332;2023-05-07T07:48:07;28.00;61.40
43320;DHT22;28914;48.722;9.332;2023-05-07T07:53:26;29.50;57.80
43320;DHT22;28914;48.722;9.332;2023-05-07T07:58:45;30.80;54.60
43320;DHT22;28914;48.722;9.332;2023-05-07T08:04:05;32.10;51.90
43320;DHT22;28914;48.722;9.332;2023-05-07T08:09:24;33.10;51.30
43320;DHT22;28914;48.722;9.332;2023-05-07T08:14:43;33.90;49.60
43320;DHT22;28914;48.722;9.332;2023-05-07T08:20:03;34.80;48.50
43320;DHT22;28914;48.722;9.332;2023-05-07T08:25:22;35.90;47.70
43320;DHT22;28914;48.722;9.332;2023-05-07T08:30:41;37.10;45.10
43320;DHT22;28914;48.722;9.332;2023-05-07T08:36:01;38.20;41.00
43320;DHT22;28914;48.722;9.332;2023-05-07T08:41:20;38.80;41.80
43320;DHT22;28914;48.722;9.332;2023-05-07T08:46:42;39.60;41.30
43320;DHT22;28914;48.722;9.332;2023-05-07T08:52:02;40.80;37.70
43320;DHT22;28914;48.722;9.332;2023-05-07T08:57:22;41.70;38.80
43320;DHT22;28914;48.722;9.332;2023-05-07T09:02:43;42.70;37.70
43320;DHT22;28914;48.722;9.332;2023-05-07T09:08:02;43.70;37.90
43320;DHT22;28914;48.722;9.332;2023-05-07T09:13:22;44.50;33.40
43320;DHT22;28914;48.722;9.332;2023-05-07T09:18:44;45.10;32.90
43320;DHT22;28914;48.722;9.332;2023-05-07T09:24:04;45.40;32.40
43320;DHT22;28914;48.722;9.332;2023-05-07T09:29:23;45.60;29.40
43320;DHT22;28914;48.722;9.332;2023-05-07T09:34:42;45.50;28.80
43320;DHT22;28914;48.722;9.332;2023-05-07T09:40:02;45.30;29.60
43320;DHT22;28914;48.722;9.332;2023-05-07T09:45:26;45.50;30.00
43320;DHT22;28914;48.722;9.332;2023-05-07T09:50:49;45.90;28.60
43320;DHT22;28914;48.722;9.332;2023-05-07T09:56:11;45.90;28.10
43320;DHT22;28914;48.722;9.332;2023-05-07T10:01:31;46.00;27.90
43320;DHT22;28914;48.722;9.332;2023-05-07T10:06:51;46.40;27.60
43320;DHT22;28914;48.722;9.332;2023-05-07T10:12:10;46.60;28.30
43320;DHT22;28914;48.722;9.332;2023-05-07T10:17:29;47.10;27.80
43320;DHT22;28914;48.722;9.332;2023-05-07T10:22:50;47.10;26.60
43320;DHT22;28914;48.722;9.332;2023-05-07T10:28:12;47.10;26.60
43320;DHT22;28914;48.722;9.332;2023-05-07T10:33:32;47.10;25.20
43320;DHT22;28914;48.722;9.332;2023-05-07T10:38:51;47.10;26.40
43320;DHT22;28914;48.722;9.332;2023-05-07T10:44:11;47.60;27.40
43320;DHT22;28914;48.722;9.332;2023-05-07T10:49:30;48.20;26.70
43320;DHT22;28914;48.722;9.332;2023-05-07T11:06:15;47.50;25.00
43320;DHT22;28914;48.722;9.332;2023-05-07T11:11:50;46.30;25.30
43320;DHT22;28914;48.722;9.332;2023-05-07T11:17:11;45.00;26.10
43320;DHT22;28914;48.722;9.332;2023-05-07T11:27:50;43.50;26.80
43320;DHT22;28914;48.722;9.332;2023-05-07T11:33:09;42.30;26.90
43320;DHT22;28914;48.722;9.332;2023-05-07T11:38:30;41.10;27.70
43320;DHT22;28914;48.722;9.332;2023-05-07T11:43:56;39.90;28.30
43320;DHT22;28914;48.722;9.332;2023-05-07T11:49:17;38.70;28.90
43320;DHT22;28914;48.722;9.332;2023-05-07T11:54:37;37.70;29.40
43320;DHT22;28914;48.722;9.332;2023-05-07T11:59:58;36.90;29.90
43320;DHT22;28914;48.722;9.332;2023-05-07T12:05:17;35.90;30.30
43320;DHT22;28914;48.722;9.332;2023-05-07T12:10:41;34.90;31.00
43320;DHT22;28914;48.722;9.332;2023-05-07T12:16:00;34.10;32.40
43320;DHT22;28914;48.722;9.332;2023-05-07T12:21:23;33.50;34.50
43320;DHT22;28914;48.722;9.332;2023-05-07T12:26:43;33.00;34.60
43320;DHT22;28914;48.722;9.332;2023-05-07T12:32:02;32.60;34.80
43320;DHT22;28914;48.722;9.332;2023-05-07T12:37:25;32.10;35.60
43320;DHT22;28914;48.722;9.332;2023-05-07T12:42:44;31.60;36.40
43320;DHT22;28914;48.722;9.332;2023-05-07T12:48:04;31.00;38.70
43320;DHT22;28914;48.722;9.332;2023-05-07T12:53:25;30.30;38.80
43320;DHT22;28914;48.722;9.332;2023-05-07T12:58:45;29.60;38.90
43320;DHT22;28914;48.722;9.332;2023-05-07T13:04:04;29.10;40.10
43320;DHT22;28914;48.722;9.332;2023-05-07T13:09:24;28.40;59.80
43320;DHT22;28914;48.722;9.332;2023-05-07T13:14:43;27.20;65.80
43320;DHT22;28914;48.722;9.332;2023-05-07T13:20:03;26.00;68.00
43320;DHT22;28914;48.722;9.332;2023-05-07T13:25:22;24.90;69.20
43320;DHT22;28914;48.722;9.332;2023-05-07T13:30:41;23.90;70.70
43320;DHT22;28914;48.722;9.332;2023-05-07T13:36:01;23.10;71.70
43320;DHT22;28914;48.722;9.332;2023-05-07T13:41:21;22.50;72.80
43320;DHT22;28914;48.722;9.332;2023-05-07T13:46:40;22.10;73.10
43320;DHT22;28914;48.722;9.332;2023-05-07T13:51:59;21.70;73.30
43320;DHT22;28914;48.722;9.332;2023-05-07T13:57:18;21.50;73.30
43320;DHT22;28914;48.722;9.332;2023-05-07T14:02:37;21.20;72.10
43320;DHT22;28914;48.722;9.332;2023-05-07T14:07:57;21.00;71.70
43320;DHT22;28914;48.722;9.332;2023-05-07T14:13:17;20.80;71.40
43320;DHT22;28914;48.722;9.332;2023-05-07T14:18:36;20.50;72.30
43320;DHT22;28914;48.722;9.332;2023-05-07T14:23:56;20.30;72.20
43320;DHT22;28914;48.722;9.332;2023-05-07T14:29:15;20.10;72.00
43320;DHT22;28914;48.722;9.332;2023-05-07T14:34:37;19.90;72.10
43320;DHT22;28914;48.722;9.332;2023-05-07T14:39:56;19.80;71.40
43320;DHT22;28914;48.722;9.332;2023-05-07T14:45:15;19.80;71.60
43320;DHT22;28914;48.722;9.332;2023-05-07T14:50:35;19.80;72.80
43320;DHT22;28914;48.722;9.332;2023-05-07T14:55:54;19.70;71.60
43320;DHT22;28914;48.722;9.332;2023-05-07T15:01:13;19.70;71.40
43320;DHT22;28914;48.722;9.332;2023-05-07T15:06:32;19.70;71.10
43320;DHT22;28914;48.722;9.332;2023-05-07T15:11:52;19.70;70.90
43320;DHT22;28914;48.722;9.332;2023-05-07T15:17:11;19.70;72.40
43320;DHT22;28914;48.722;9.332;2023-05-07T15:22:30;19.70;72.70
43320;DHT22;28914;48.722;9.332;2023-05-07T15:27:49;19.70;73.00
43320;DHT22;28914;48.722;9.332;2023-05-07T15:33:09;19.80;73.40
43320;DHT22;28914;48.722;9.332;2023-05-07T15:38:28;19.80;74.20
43320;DHT22;28914;48.722;9.332;2023-05-07T15:43:50;19.90;75.10
43320;DHT22;28914;48.722;9.332;2023-05-07T15:49:09;19.90;74.30
43320;DHT22;28914;48.722;9.332;2023-05-07T15:54:28;19.90;74.20
43320;DHT22;28914;48.722;9.332;2023-05-07T15:59:47;20.00;74.60
43320;DHT22;28914;48.722;9.332;2023-05-07T16:05:07;20.10;74.50
43320;DHT22;28914;48.722;9.332;2023-05-07T16:10:28;20.20;74.50
43320;DHT22;28914;48.722;9.332;2023-05-07T16:15:48;20.30;74.60
43320;DHT22;28914;48.722;9.332;2023-05-07T16:21:07;20.30;73.60
43320;DHT22;28914;48.722;9.332;2023-05-07T16:26:26;20.40;73.50
43320;DHT22;28914;48.722;9.332;2023-05-07T16:31:45;20.40;73.20
43320;DHT22;28914;48.722;9.332;2023-05-07T16:37:05;20.50;73.40
43320;DHT22;28914;48.722;9.332;2023-05-07T16:42:25;20.50;73.60
43320;DHT22;28914;48.722;9.332;2023-05-07T16:47:44;20.50;73.60
43320;DHT22;28914;48.722;9.332;2023-05-07T16:53:05;20.50;73.10
43320;DHT22;28914;48.722;9.332;2023-05-07T16:58:28;20.50;74.70
43320;DHT22;28914;48.722;9.332;2023-05-07T17:03:47;20.50;73.60
43320;DHT22;28914;48.722;9.332;2023-05-07T17:09:06;20.50;73.40
43320;DHT22;28914;48.722;9.332;2023-05-07T17:14:25;20.50;73.70
43320;DHT22;28914;48.722;9.332;2023-05-07T17:19:45;20.50;74.70
43320;DHT22;28914;48.722;9.332;2023-05-07T17:25:04;20.50;74.10
43320;DHT22;28914;48.722;9.332;2023-05-07T17:30:24;20.50;74.10
43320;DHT22;28914;48.722;9.332;2023-05-07T17:35:42;20.40;74.20
43320;DHT22;28914;48.722;9.332;2023-05-07T17:41:02;20.30;75.20
43320;DHT22;28914;48.722;9.332;2023-05-07T17:46:21;20.20;74.90
43320;DHT22;28914;48.722;9.332;2023-05-07T17:51:40;20.20;74.60
43320;DHT22;28914;48.722;9.332;2023-05-07T17:57:00;20.10;74.50
43320;DHT22;28914;48.722;9.332;2023-05-07T18:02:19;20.00;74.80
43320;DHT22;28914;48.722;9.332;2023-05-07T18:07:38;19.90;75.80
43320;DHT22;28914;48.722;9.332;2023-05-07T18:12:57;19.90;75.30
43320;DHT22;28914;48.722;9.332;2023-05-07T18:18:16;19.80;75.60
43320;DHT22;28914;48.722;9.332;2023-05-07T18:23:37;19.80;75.60
43320;DHT22;28914;48.722;9.332;2023-05-07T18:28:56;19.80;76.00
43320;DHT22;28914;48.722;9.332;2023-05-07T18:34:15;19.70;76.60
43320;DHT22;28914;48.722;9.332;2023-05-07T18:39:35;19.70;76.30
43320;DHT22;28914;48.722;9.332;2023-05-07T18:44:54;19.60;76.50
43320;DHT22;28914;48.722;9.332;2023-05-07T18:50:13;19.60;76.40
43320;DHT22;28914;48.722;9.332;2023-05-07T18:55:34;19.60;77.20
43320;DHT22;28914;48.722;9.332;2023-05-07T19:00:53;19.50;77.30
43320;DHT22;28914;48.722;9.332;2023-05-07T19:06:13;19.40;77.70
43320;DHT22;28914;48.722;9.332;2023-05-07T19:11:32;19.30;77.40
43320;DHT22;28914;48.722;9.332;2023-05-07T19:16:51;19.30;77.40
43320;DHT22;28914;48.722;9.332;2023-05-07T19:22:10;19.20;77.50
43320;DHT22;28914;48.722;9.332;2023-05-07T19:27:30;19.20;77.80
43320;DHT22;28914;48.722;9.332;2023-05-07T19:32:49;19.10;78.20
43320;DHT22;28914;48.722;9.332;2023-05-07T19:38:08;19.00;78.20
43320;DHT22;28914;48.722;9.332;2023-05-07T19:43:29;18.80;78.10
43320;DHT22;28914;48.722;9.332;2023-05-07T19:48:53;18.80;78.60
43320;DHT22;28914;48.722;9.332;2023-05-07T19:54:13;18.70;78.60
43320;DHT22;28914;48.722;9.332;2023-05-07T19:59:32;18.70;79.10
43320;DHT22;28914;48.722;9.332;2023-05-07T20:04:51;18.70;79.60
43320;DHT22;28914;48.722;9.332;2023-05-07T20:10:10;18.70;79.60
43320;DHT22;28914;48.722;9.332;2023-05-07T20:15:30;18.70;79.60
43320;DHT22;28914;48.722;9.332;2023-05-07T20:20:49;18.70;79.70
43320;DHT22;28914;48.722;9.332;2023-05-07T20:26:08;18.80;80.00
43320;DHT22;28914;48.722;9.332;2023-05-07T20:31:27;18.80;80.30
43320;DHT22;28914;48.722;9.332;2023-05-07T20:36:50;18.80;80.50
43320;DHT22;28914;48.722;9.332;2023-05-07T20:42:10;18.80;80.60
43320;DHT22;28914;48.722;9.332;2023-05-07T20:47:31;18.80;80.60
43320;DHT22;28914;48.722;9.332;2023-05-07T20:52:51;18.80;80.60
43320;DHT22;28914;48.722;9.332;2023-05-07T20:58:11;18.80;80.60
43320;DHT22;28914;48.722;9.332;2023-05-07T21:03:30;18.80;80.70
43320;DHT22;28914;48.722;9.332;2023-05-07T21:08:49;18.90;80.80
43320;DHT22;28914;48.722;9.332;2023-05-07T21:14:09;18.90;81.00
43320;DHT22;28914;48.722;9.332;2023-05-07T21:19:28;18.90;81.10
43320;DHT22;28914;48.722;9.332;2023-05-07T21:24:47;18.90;81.10
43320;DHT22;28914;48.722;9.332;2023-05-07T21:30:07;18.80;81.10
43320;DHT22;28914;48.722;9.332;2023-05-07T21:35:26;18.80;81.20
43320;DHT22;28914;48.722;9.332;2023-05-07T21:40:45;18.80;81.20
43320;DHT22;28914;48.722;9.332;2023-05-07T21:46:08;18.80;81.30
43320;DHT22;28914;48.722;9.332;2023-05-07T21:51:27;18.80;81.50
43320;DHT22;28914;48.722;9.332;2023-05-07T21:56:47;18.70;81.20
43320;DHT22;28914;48.722;9.332;2023-05-07T22:02:07;18.70;81.30
43320;DHT22;28914;48.722;9.332;2023-05-07T22:07:26;18.60;81.40
43320;DHT22;28914;48.722;9.332;2023-05-07T22:12:45;18.60;81.70
43320;DHT22;28914;48.722;9.332;2023-05-07T22:18:04;18.60;82.00
43320;DHT22;28914;48.722;9.332;2023-05-07T22:23:23;18.60;82.00
43320;DHT22;28914;48.722;9.332;2023-05-07T22:28:43;18.50;82.10
43320;DHT22;28914;48.722;9.332;2023-05-07T22:34:02;18.60;82.30
43320;DHT22;28914;48.722;9.332;2023-05-07T22:39:21;18.60;82.50
43320;DHT22;28914;48.722;9.332;2023-05-07T22:44:41;18.60;82.60
43320;DHT22;28914;48.722;9.332;2023-05-07T22:50:00;18.60;82.60
43320;DHT22;28914;48.722;9.332;2023-05-07T22:55:19;18.60;82.70
43320;DHT22;28914;48.722;9.332;2023-05-07T23:00:39;18.60;82.70
43320;DHT22;28914;48.722;9.332;2023-05-07T23:05:58;18.60;82.70
43320;DHT22;28914;48.722;9.332;2023-05-07T23:11:17;18.60;82.90
43320;DHT22;28914;48.722;9.332;2023-05-07T23:16:36;18.60;83.00
43320;DHT22;28914;48.722;9.332;2023-05-07T23:21:55;18.60;83.10
43320;DHT22;28914;48.722;9.332;2023-05-07T23:27:14;18.60;83.20
43320;DHT22;28914;48.722;9.332;2023-05-07T23:32:34;18.70;83.40
43320;DHT22;28914;48.722;9.332;2023-05-07T23:37:53;18.70;83.40
43320;DHT22;28914;48.722;9.332;2023-05-07T23:43:12;18.70;83.50
43320;DHT22;28914;48.722;9.332;2023-05-07T23:48:31;18.70;83.60
43320;DHT22;28914;48.722;9.332;2023-05-07T23:53:50;18.70;83.60
43320;DHT22;28914;48.722;9.332;2023-05-07T23:59:10;18.70;83.70
